createdAt,value
2023-03-29T00:03:33.958Z,3.30
2023-03-29T00:08:25.779Z,3.20
2023-03-29T00:13:18.196Z,3.10
2023-03-29T00:18:09.927Z,3.20
2023-03-29T00:23:01.604Z,3.23
2023-03-29T00:27:53.313Z,3.20
2023-03-29T00:32:45.847Z,2.97
2023-03-29T00:37:37.982Z,3.70
2023-03-29T00:42:30.622Z,3.20
2023-03-29T00:47:27.834Z,2.93
2023-03-29T00:52:22.554Z,2.70
2023-03-29T00:57:18.916Z,3.10
2023-03-29T01:02:11.238Z,3.03
2023-03-29T01:07:49.302Z,3.70
2023-03-29T01:12:47.838Z,3.43
2023-03-29T01:17:43.266Z,3.23
2023-03-29T01:23:13.881Z,2.97
2023-03-29T01:28:14.908Z,3.30
2023-03-29T01:33:14.525Z,2.90
2023-03-29T01:38:13.303Z,3.13
2023-03-29T01:43:34.204Z,2.87
2023-03-29T01:48:35.242Z,2.93
2023-03-29T01:53:35.996Z,3.10
2023-03-29T01:58:35.913Z,3.53
2023-03-29T02:03:31.173Z,2.93
2023-03-29T02:08:24.534Z,3.63
2023-03-29T02:13:17.931Z,2.53
2023-03-29T02:18:09.770Z,2.43
2023-03-29T02:23:14.245Z,2.10
2023-03-29T02:28:07.325Z,2.27
2023-03-29T02:33:13.895Z,1.90
2023-03-29T02:38:11.260Z,1.90
2023-03-29T02:43:04.871Z,1.90
2023-03-29T02:48:03.426Z,2.30
2023-03-29T02:53:05.471Z,1.67
2023-03-29T02:57:57.936Z,1.80
2023-03-29T03:02:50.860Z,1.83
2023-03-29T03:07:43.290Z,2.00
2023-03-29T03:12:35.012Z,2.00
2023-03-29T03:17:26.694Z,2.00
2023-03-29T03:22:18.409Z,2.10
2023-03-29T03:27:10.075Z,2.17
2023-03-29T03:32:02.057Z,2.10
2023-03-29T03:36:54.543Z,1.90
2023-03-29T03:41:46.341Z,2.10
2023-03-29T03:46:38.107Z,1.73
2023-03-29T03:51:30.059Z,1.70
2023-03-29T03:56:21.773Z,1.77
2023-03-29T04:01:13.590Z,2.00
2023-03-29T04:11:13.760Z,1.73
2023-03-29T04:16:07.571Z,2.20
2023-03-29T04:20:59.527Z,1.90
2023-03-29T04:25:56.620Z,2.13
2023-03-29T04:30:48.881Z,2.63
2023-03-29T04:35:40.693Z,2.13
2023-03-29T04:40:33.529Z,2.30
2023-03-29T04:45:25.712Z,2.70
2023-03-29T04:50:17.745Z,2.80
2023-03-29T05:00:22.131Z,2.40
2023-03-29T05:05:14.247Z,2.07
2023-03-29T05:10:12.101Z,2.27
2023-03-29T05:15:05.527Z,2.50
2023-03-29T05:19:57.451Z,2.07
2023-03-29T05:24:50.386Z,2.43
2023-03-29T05:29:42.472Z,3.13
2023-03-29T05:34:34.128Z,3.30
2023-03-29T05:39:25.953Z,2.20
2023-03-29T05:44:17.710Z,1.50
2023-03-29T05:49:09.389Z,2.17
2023-03-29T05:54:01.822Z,4.30
2023-03-29T05:58:57.178Z,1.50
2023-03-29T06:03:49.256Z,1.77
2023-03-29T06:08:41.679Z,1.87
2023-03-29T06:13:34.389Z,2.00
2023-03-29T06:23:34.726Z,2.10
2023-03-29T06:28:27.141Z,1.40
2023-03-29T06:33:24.811Z,1.67
2023-03-29T06:38:17.134Z,1.40
2023-03-29T06:43:09.027Z,1.23
2023-03-29T06:48:02.236Z,0.87
2023-03-29T06:52:54.050Z,1.00
2023-03-29T06:57:45.719Z,1.07
2023-03-29T07:02:38.968Z,1.50
2023-03-29T07:07:43.957Z,1.10
2023-03-29T07:12:36.027Z,1.20
2023-03-29T07:17:35.701Z,1.10
2023-03-29T07:22:27.476Z,1.00
2023-03-29T07:27:21.394Z,1.03
2023-03-29T07:32:13.408Z,1.90
2023-03-29T07:37:06.417Z,1.23
2023-03-29T07:41:58.432Z,1.53
2023-03-29T07:46:50.088Z,1.80
2023-03-29T07:51:42.148Z,1.40
2023-03-29T07:56:35.987Z,1.50
2023-03-29T08:01:27.782Z,1.37
2023-03-29T08:06:19.491Z,1.30
2023-03-29T08:11:11.232Z,1.57
2023-03-29T08:16:03.345Z,1.30
2023-03-29T08:20:57.009Z,1.20
2023-03-29T08:26:01.307Z,1.23
2023-03-29T08:30:53.607Z,1.60
2023-03-29T08:35:45.616Z,1.60
2023-03-29T08:45:51.497Z,1.60
2023-03-29T09:06:22.331Z,2.03
2023-03-29T09:17:06.167Z,2.07
2023-03-29T09:22:08.446Z,1.60
2023-03-29T09:27:33.193Z,2.13
2023-03-29T09:32:37.858Z,1.57
2023-03-29T09:42:43.654Z,1.53
2023-03-29T09:47:59.479Z,1.50
2023-03-29T09:52:51.749Z,1.10
2023-03-29T09:57:44.557Z,1.20
2023-03-29T10:02:45.793Z,0.88
2023-03-29T10:07:54.496Z,1.30
2023-03-29T10:12:58.742Z,0.93
2023-03-29T10:18:06.838Z,1.20
2023-03-29T10:28:18.599Z,0.98
2023-03-29T10:33:33.537Z,3.60
2023-03-29T10:54:09.908Z,1.08
2023-03-29T10:59:27.156Z,1.08
2023-03-29T11:10:10.058Z,1.00
2023-03-29T11:15:23.088Z,1.00
2023-03-29T11:37:51.861Z,0.98
2023-03-29T11:42:50.882Z,1.38
2023-03-29T11:47:47.256Z,1.35
2023-03-29T11:53:29.628Z,1.13
2023-03-29T11:58:32.717Z,1.63
2023-03-29T12:09:39.582Z,1.88
2023-03-29T12:15:11.090Z,2.08
2023-03-29T12:20:29.492Z,1.23
2023-03-29T12:25:38.445Z,1.10
2023-03-29T12:31:05.775Z,1.20
2023-03-29T12:36:38.117Z,1.00
2023-03-29T12:41:37.794Z,1.65
2023-03-29T12:46:34.832Z,1.30
2023-03-29T12:51:33.311Z,1.02
2023-03-29T12:56:55.534Z,1.40
2023-03-29T13:02:35.667Z,1.25
2023-03-29T13:12:44.347Z,1.50
2023-03-29T13:17:56.928Z,1.40
2023-03-29T13:23:18.160Z,1.25
2023-03-29T13:28:34.744Z,1.20
2023-03-29T13:34:06.912Z,0.98
2023-03-29T13:39:07.759Z,1.20
2023-03-29T13:44:00.170Z,1.15
2023-03-29T13:49:01.002Z,1.90
2023-03-29T13:54:28.328Z,1.30
2023-03-29T13:59:31.898Z,1.30
2023-03-29T14:04:30.395Z,1.45
2023-03-29T14:09:30.075Z,1.17
2023-03-29T14:14:25.962Z,1.27
2023-03-29T14:19:31.902Z,1.42
2023-03-29T14:29:45.267Z,1.40
2023-03-29T14:39:47.762Z,1.92
2023-03-29T14:44:40.346Z,1.63
2023-03-29T14:49:34.021Z,1.40
2023-03-29T14:54:32.959Z,1.23
2023-03-29T14:59:54.851Z,1.90
2023-03-29T15:05:00.609Z,1.50
2023-03-29T15:09:57.386Z,1.35
2023-03-29T15:14:52.598Z,1.40
2023-03-29T15:19:44.607Z,1.08
2023-03-29T15:24:59.888Z,1.27
2023-03-29T15:30:03.932Z,1.40
2023-03-29T15:35:05.794Z,1.40
2023-03-29T15:39:58.101Z,1.75
2023-03-29T15:44:56.603Z,1.55
2023-03-29T15:54:54.058Z,1.20
2023-03-29T15:59:46.120Z,1.75
2023-03-29T16:04:37.804Z,1.90
2023-03-29T16:09:29.494Z,1.52
2023-03-29T16:14:27.916Z,1.15
2023-03-29T16:19:20.358Z,1.35
2023-03-29T16:24:20.009Z,1.50
2023-03-29T16:29:19.565Z,1.50
2023-03-29T16:34:19.809Z,0.95
2023-03-29T16:39:13.297Z,1.40
2023-03-29T16:44:05.367Z,1.65
2023-03-29T16:48:57.963Z,1.30
2023-03-29T16:53:51.323Z,1.92
2023-03-29T16:58:43.670Z,1.98
2023-03-29T17:08:50.465Z,1.80
2023-03-29T17:23:55.510Z,2.13
2023-03-29T17:28:48.246Z,1.95
2023-03-29T17:43:59.854Z,1.90
2023-03-29T17:48:51.894Z,2.25
2023-03-29T18:03:56.744Z,2.05
2023-03-29T18:08:48.458Z,2.35
2023-03-29T18:13:40.230Z,1.92
2023-03-29T18:18:33.253Z,1.60
2023-03-29T18:23:25.143Z,1.92
2023-03-29T18:28:18.362Z,1.75
2023-03-29T18:33:10.399Z,1.70
2023-03-29T18:38:03.197Z,1.60
2023-03-29T18:42:54.879Z,2.10
2023-03-29T18:47:46.748Z,1.92
2023-03-29T18:52:38.824Z,1.80
2023-03-29T18:57:30.751Z,1.80
2023-03-29T19:02:22.610Z,1.52
2023-03-29T19:07:14.405Z,1.65
2023-03-29T19:12:06.463Z,1.83
2023-03-29T19:16:58.124Z,1.67
2023-03-29T19:21:50.125Z,2.00
2023-03-29T19:26:48.081Z,1.98
2023-03-29T19:31:40.038Z,1.90
2023-03-29T19:36:32.180Z,1.90
2023-03-29T19:41:23.877Z,2.27
2023-03-29T19:46:15.823Z,2.37
2023-03-29T19:51:08.018Z,2.07
2023-03-29T19:56:01.918Z,1.92
2023-03-29T20:00:57.936Z,2.27
2023-03-29T20:05:50.784Z,1.80
2023-03-29T20:10:42.656Z,2.08
2023-03-29T20:15:34.908Z,1.80
2023-03-29T20:20:28.253Z,2.00
2023-03-29T20:25:21.125Z,1.65
2023-03-29T20:30:14.221Z,1.80
2023-03-29T20:35:06.518Z,1.88
2023-03-29T20:39:59.302Z,1.83
2023-03-29T20:44:53.750Z,2.30
2023-03-29T20:49:45.820Z,1.90
2023-03-29T20:54:38.614Z,2.35
2023-03-29T20:59:30.771Z,2.10
2023-03-29T21:04:23.160Z,2.58
2023-03-29T21:09:16.223Z,2.17
2023-03-29T21:14:09.083Z,2.00
2023-03-29T21:19:00.920Z,1.85
2023-03-29T21:23:52.598Z,2.20
2023-03-29T21:28:44.306Z,2.45
2023-03-29T21:33:36.130Z,1.90
2023-03-29T21:38:28.516Z,2.75
2023-03-29T21:43:20.952Z,2.63
2023-03-29T21:48:12.863Z,1.85
2023-03-29T21:53:04.555Z,1.90
2023-03-29T21:57:57.148Z,2.47
2023-03-29T22:07:58.593Z,2.30
2023-03-29T22:12:51.836Z,3.13
2023-03-29T22:17:43.561Z,2.38
2023-03-29T22:22:35.273Z,2.33
2023-03-29T22:27:26.950Z,1.95
2023-03-29T22:32:18.671Z,1.80
2023-03-29T22:37:10.601Z,2.47
2023-03-29T22:42:02.427Z,2.87
2023-03-29T22:52:01.274Z,1.90
2023-03-29T22:56:52.976Z,2.33
2023-03-29T23:06:50.510Z,1.70
2023-03-29T23:11:42.426Z,2.10
2023-03-29T23:21:40.746Z,1.40
2023-03-29T23:26:33.791Z,1.40
2023-03-29T23:31:25.564Z,1.53
2023-03-29T23:36:19.159Z,1.80
2023-03-29T23:41:12.723Z,1.50
2023-03-29T23:46:11.936Z,2.37
2023-03-29T23:51:05.294Z,1.43
2023-03-29T23:56:00.253Z,2.30
